Time;durP1;ratioP1;P1;durP2;ratioP2;P2;SDS_P1;SDS_P2;PMS_P1;PMS_P2;Temp;Humidity;BMP_temperature;BMP_pressure;BME280_temperature;BME280_humidity;BME280_pressure;Samples;Min_cycle;Max_cycle;Signal;HPM_P1;HPM_P2
2021/12/29 00:00:27;;;;;;;;;;;10.20;88.50;;;;;;5034020;28;19916;-66
2021/12/29 00:02:54;;;;;;;;;;;10.30;87.90;;;;;;5033945;28;20015;-60
2021/12/29 00:05:19;;;;;;;;;;;10.20;86.70;;;;;;5034269;28;19909;-58
2021/12/29 00:07:45;;;;;;;;;;;10.10;87.70;;;;;;5034277;28;19917;-67
2021/12/29 00:10:12;;;;;;;;;;;10.00;88.10;;;;;;5034084;28;19921;-68
2021/12/29 00:12:42;;;;;;;;;;;10.00;88.40;;;;;;5033984;28;19909;-68
2021/12/29 00:15:09;;;;;;;;;;;10.10;88.20;;;;;;5034126;28;20337;-68
2021/12/29 00:17:34;;;;;;;;;;;10.10;87.80;;;;;;5034027;28;20308;-64
2021/12/29 00:20:00;;;;;;;;;;;10.10;87.30;;;;;;5044837;22;19944;-60
2021/12/29 00:22:25;;;;;;;;;;;10.20;87.50;;;;;;5033682;28;19913;-58
2021/12/29 00:24:51;;;;;;;;;;;10.20;87.60;;;;;;5033720;28;20332;-60
2021/12/29 00:27:16;;;;;;;;;;;10.10;87.60;;;;;;5033913;28;20300;-64
2021/12/29 00:29:42;;;;;;;;;;;10.20;87.30;;;;;;5033617;28;20364;-63
2021/12/29 00:32:07;;;;;;;;;;;10.10;87.30;;;;;;5033536;28;19938;-59
2021/12/29 00:34:33;;;;;;;;;;;10.10;87.60;;;;;;5033746;28;20308;-56
2021/12/29 00:36:59;;;;;;;;;;;10.10;87.80;;;;;;5033670;28;19932;-55
2021/12/29 00:39:24;;;;;;;;;;;10.10;87.70;;;;;;5032295;28;19909;-60
2021/12/29 00:41:50;;;;;;;;;;;10.20;87.80;;;;;;5015800;28;20007;-56
2021/12/29 00:44:15;;;;;;;;;;;10.20;87.70;;;;;;5033308;28;19909;-55
2021/12/29 00:46:41;;;;;;;;;;;10.20;87.70;;;;;;5033583;28;19920;-57
2021/12/29 00:49:08;;;;;;;;;;;10.10;87.50;;;;;;5015552;28;19909;-57
2021/12/29 00:51:34;;;;;;;;;;;10.20;87.00;;;;;;5033506;28;20002;-57
2021/12/29 00:54:00;;;;;;;;;;;10.20;87.00;;;;;;5033413;28;19949;-55
2021/12/29 00:56:25;;;;;;;;;;;10.20;87.20;;;;;;5033432;28;19956;-55
2021/12/29 00:58:51;;;;;;;;;;;10.20;87.00;;;;;;5033396;28;20327;-56
2021/12/29 01:01:16;;;;;;;;;;;10.10;87.70;;;;;;5033307;28;20392;-56
2021/12/29 01:03:43;;;;;;;;;;;10.10;88.20;;;;;;5033241;28;19921;-54
2021/12/29 01:06:09;;;;;;;;;;;10.10;88.10;;;;;;5033092;28;19955;-55
2021/12/29 01:08:34;;;;;;;;;;;10.10;87.80;;;;;;5033104;28;19909;-54
2021/12/29 01:11:00;;;;;;;;;;;10.10;87.80;;;;;;5033274;28;20340;-57
2021/12/29 01:13:34;;;;;;;;;;;10.10;87.40;;;;;;5033221;28;19932;-54
2021/12/29 01:18:32;;;;;;;;;;;10.10;87.50;;;;;;5037263;28;20269;-56
2021/12/29 01:20:58;;;;;;;;;;;10.20;87.20;;;;;;5036988;28;19917;-56
2021/12/29 01:23:23;;;;;;;;;;;10.20;86.90;;;;;;5037299;28;19924;-56
2021/12/29 01:25:49;;;;;;;;;;;10.20;87.50;;;;;;5037157;28;20303;-56
2021/12/29 01:28:15;;;;;;;;;;;10.10;87.40;;;;;;5037053;28;19909;-54
2021/12/29 01:30:41;;;;;;;;;;;10.10;87.60;;;;;;5037206;28;19909;-55
2021/12/29 01:33:06;;;;;;;;;;;10.10;87.50;;;;;;5036947;28;19909;-56
2021/12/29 01:35:32;;;;;;;;;;;10.10;87.60;;;;;;5037180;28;20399;-54
2021/12/29 01:37:59;;;;;;;;;;;10.10;87.70;;;;;;5036794;28;20388;-55
2021/12/29 01:40:24;;;;;;;;;;;10.10;87.70;;;;;;5036793;28;19909;-55
2021/12/29 01:42:50;;;;;;;;;;;10.00;87.90;;;;;;5036676;28;19932;-55
2021/12/29 01:45:15;;;;;;;;;;;10.00;87.90;;;;;;5036760;28;19936;-58
2021/12/29 01:47:41;;;;;;;;;;;10.00;88.10;;;;;;5036940;28;19916;-60
2021/12/29 01:50:08;;;;;;;;;;;10.00;88.00;;;;;;5036797;28;19910;-58
2021/12/29 01:52:38;;;;;;;;;;;10.00;87.90;;;;;;5018735;28;19909;-59
2021/12/29 01:55:06;;;;;;;;;;;10.00;88.00;;;;;;5036634;28;19909;-58
2021/12/29 01:57:31;;;;;;;;;;;10.00;88.30;;;;;;5036383;28;20003;-60
2021/12/29 01:59:57;;;;;;;;;;;10.00;88.10;;;;;;5036414;28;19924;-59
2021/12/29 02:02:22;;;;;;;;;;;10.10;87.50;;;;;;5036260;28;19917;-64
2021/12/29 02:04:48;;;;;;;;;;;10.00;87.50;;;;;;5018703;28;19971;-59
2021/12/29 02:07:14;;;;;;;;;;;10.10;87.80;;;;;;5036514;28;20387;-62
2021/12/29 02:09:40;;;;;;;;;;;10.00;88.00;;;;;;5036075;28;19916;-59
2021/12/29 02:12:05;;;;;;;;;;;10.00;88.20;;;;;;5036258;28;19913;-57
2021/12/29 02:14:32;;;;;;;;;;;10.00;88.30;;;;;;5036258;28;19916;-58
2021/12/29 02:16:58;;;;;;;;;;;10.00;88.30;;;;;;5036207;28;19910;-58
2021/12/29 02:19:25;;;;;;;;;;;10.00;88.20;;;;;;5036148;28;20383;-58
2021/12/29 02:22:01;;;;;;;;;;;9.90;88.10;;;;;;5036197;28;19936;-57
2021/12/29 02:24:37;;;;;;;;;;;9.90;87.90;;;;;;5036121;28;19913;-56
2021/12/29 02:27:03;;;;;;;;;;;9.90;87.90;;;;;;5035877;28;20284;-56
2021/12/29 02:29:29;;;;;;;;;;;9.90;88.30;;;;;;5036184;28;19909;-60
2021/12/29 02:31:54;;;;;;;;;;;10.00;88.60;;;;;;5035906;28;20031;-57
2021/12/29 02:34:20;;;;;;;;;;;10.00;88.60;;;;;;5036494;28;19909;-56
2021/12/29 02:36:46;;;;;;;;;;;9.90;88.50;;;;;;5035781;28;19909;-56
2021/12/29 02:39:12;;;;;;;;;;;10.00;88.50;;;;;;5035579;28;19994;-60
2021/12/29 02:41:40;;;;;;;;;;;10.00;87.90;;;;;;5035769;28;19956;-56
2021/12/29 02:44:10;;;;;;;;;;;9.90;88.10;;;;;;5035591;28;19947;-56
2021/12/29 02:46:36;;;;;;;;;;;9.90;88.20;;;;;;5035493;28;19944;-57
2021/12/29 02:49:02;;;;;;;;;;;9.90;88.00;;;;;;5035718;28;19952;-59
2021/12/29 02:51:29;;;;;;;;;;;9.90;88.20;;;;;;5035407;28;19978;-58
2021/12/29 02:53:54;;;;;;;;;;;9.90;88.50;;;;;;5035458;28;19909;-56
2021/12/29 02:56:21;;;;;;;;;;;9.90;88.70;;;;;;5035541;28;20361;-60
2021/12/29 02:58:47;;;;;;;;;;;9.80;88.70;;;;;;5035544;28;19915;-61
2021/12/29 03:01:14;;;;;;;;;;;10.00;87.70;;;;;;5035407;28;19913;-58
2021/12/29 03:03:40;;;;;;;;;;;10.00;88.10;;;;;;5035210;28;19917;-54
2021/12/29 03:06:06;;;;;;;;;;;9.90;88.50;;;;;;5035244;28;20032;-54
2021/12/29 03:08:31;;;;;;;;;;;9.90;88.60;;;;;;5035133;28;19945;-56
2021/12/29 03:10:57;;;;;;;;;;;9.90;88.20;;;;;;5035272;28;20003;-56
2021/12/29 03:13:24;;;;;;;;;;;10.00;88.50;;;;;;5035030;28;20285;-57
2021/12/29 03:15:50;;;;;;;;;;;10.00;88.10;;;;;;5034996;28;19924;-55
2021/12/29 03:18:16;;;;;;;;;;;10.00;88.20;;;;;;5034998;28;19945;-55
2021/12/29 03:20:41;;;;;;;;;;;10.00;88.40;;;;;;5034811;28;19963;-54
2021/12/29 03:23:07;;;;;;;;;;;9.90;88.50;;;;;;5035006;28;19917;-55
2021/12/29 03:25:32;;;;;;;;;;;9.90;88.70;;;;;;5034995;28;19915;-55
2021/12/29 03:28:00;;;;;;;;;;;9.90;88.70;;;;;;5034759;28;19963;-54
2021/12/29 03:30:29;;;;;;;;;;;9.90;88.70;;;;;;5034698;28;20269;-55
2021/12/29 03:33:03;;;;;;;;;;;9.90;88.70;;;;;;5034784;28;20000;-55
2021/12/29 03:35:33;;;;;;;;;;;9.90;88.50;;;;;;5034706;28;19999;-56
2021/12/29 03:37:59;;;;;;;;;;;10.00;88.20;;;;;;5034142;28;19909;-56
2021/12/29 03:40:25;;;;;;;;;;;10.00;88.50;;;;;;5034812;28;19932;-56
2021/12/29 03:42:51;;;;;;;;;;;9.90;88.50;;;;;;5034589;28;20365;-56
2021/12/29 03:45:16;;;;;;;;;;;9.80;88.60;;;;;;5034580;28;19909;-56
2021/12/29 03:47:42;;;;;;;;;;;9.90;88.70;;;;;;5034517;28;20381;-56
2021/12/29 03:50:08;;;;;;;;;;;9.90;88.70;;;;;;5033122;28;20439;-55
2021/12/29 03:52:33;;;;;;;;;;;9.80;89.00;;;;;;5034352;28;19909;-54
2021/12/29 03:54:59;;;;;;;;;;;9.80;89.20;;;;;;5034463;28;19971;-55
2021/12/29 03:57:24;;;;;;;;;;;9.90;89.20;;;;;;5034592;28;19909;-55
2021/12/29 03:59:50;;;;;;;;;;;9.90;88.90;;;;;;5034248;28;19909;-57
2021/12/29 04:02:15;;;;;;;;;;;9.90;88.70;;;;;;5034179;28;20008;-55
2021/12/29 04:04:41;;;;;;;;;;;9.90;88.90;;;;;;5032872;28;20377;-56
2021/12/29 04:07:06;;;;;;;;;;;9.90;88.90;;;;;;5016444;28;19913;-56
2021/12/29 04:09:32;;;;;;;;;;;10.00;88.90;;;;;;5034100;28;19935;-57
2021/12/29 04:11:57;;;;;;;;;;;9.90;88.70;;;;;;5034174;28;19914;-55
2021/12/29 04:14:26;;;;;;;;;;;10.00;88.70;;;;;;5034168;28;19916;-55
2021/12/29 04:16:52;;;;;;;;;;;9.90;89.50;;;;;;5033655;28;19909;-54
2021/12/29 04:19:29;;;;;;;;;;;9.90;88.90;;;;;;5016094;28;19925;-55
2021/12/29 04:21:55;;;;;;;;;;;9.90;89.60;;;;;;5033537;28;19913;-55
2021/12/29 04:24:21;;;;;;;;;;;9.90;89.30;;;;;;5033865;28;19952;-55
2021/12/29 04:26:46;;;;;;;;;;;9.90;89.20;;;;;;5034089;28;19940;-55
2021/12/29 04:29:13;;;;;;;;;;;9.90;89.40;;;;;;5033682;28;20226;-58
2021/12/29 04:31:42;;;;;;;;;;;9.90;89.20;;;;;;5032974;28;20356;-54
2021/12/29 04:34:07;;;;;;;;;;;10.00;89.10;;;;;;5033551;28;19909;-56
2021/12/29 04:36:33;;;;;;;;;;;10.00;89.10;;;;;;5033715;28;19956;-55
2021/12/29 04:38:59;;;;;;;;;;;10.00;88.70;;;;;;5033763;28;19916;-54
2021/12/29 04:41:25;;;;;;;;;;;10.00;88.50;;;;;;5033563;28;20004;-57
2021/12/29 04:43:51;;;;;;;;;;;10.00;88.70;;;;;;5033407;28;20000;-55
2021/12/29 04:46:19;;;;;;;;;;;10.00;88.40;;;;;;5033455;28;19912;-54
2021/12/29 04:48:52;;;;;;;;;;;10.20;87.80;;;;;;5032708;28;20265;-57
2021/12/29 04:51:24;;;;;;;;;;;10.10;87.90;;;;;;5033460;28;19916;-56
2021/12/29 04:53:50;;;;;;;;;;;10.10;88.60;;;;;;5033441;28;19909;-57
2021/12/29 04:56:16;;;;;;;;;;;10.00;88.70;;;;;;5033563;28;20008;-56
2021/12/29 04:58:42;;;;;;;;;;;10.00;88.80;;;;;;5015382;28;19913;-56
2021/12/29 05:01:07;;;;;;;;;;;10.10;88.80;;;;;;5015628;28;20422;-56
2021/12/29 05:03:36;;;;;;;;;;;10.10;88.50;;;;;;5033206;28;20269;-57
2021/12/29 05:08:30;;;;;;;;;;;10.20;87.90;;;;;;5033350;28;20275;-55
2021/12/29 05:10:58;;;;;;;;;;;10.20;87.90;;;;;;5033052;28;20040;-59
2021/12/29 05:13:24;;;;;;;;;;;10.10;87.90;;;;;;5033474;28;19910;-62
2021/12/29 05:15:49;;;;;;;;;;;10.20;87.90;;;;;;5033187;28;20433;-57
2021/12/29 05:18:15;;;;;;;;;;;10.10;88.10;;;;;;5032971;28;19942;-55
2021/12/29 05:20:40;;;;;;;;;;;10.20;88.20;;;;;;5033099;28;19928;-56
2021/12/29 05:23:06;;;;;;;;;;;10.20;88.00;;;;;;5032741;28;19921;-59
2021/12/29 05:25:32;;;;;;;;;;;10.20;88.10;;;;;;5033255;28;19913;-55
2021/12/29 05:27:57;;;;;;;;;;;10.20;88.30;;;;;;5032834;28;19916;-55
2021/12/29 05:30:23;;;;;;;;;;;10.20;88.00;;;;;;5033232;28;19955;-55
2021/12/29 05:32:48;;;;;;;;;;;10.10;88.00;;;;;;5033229;28;19948;-55
2021/12/29 05:35:15;;;;;;;;;;;10.10;88.40;;;;;;5032870;28;20349;-57
2021/12/29 05:37:41;;;;;;;;;;;10.10;88.50;;;;;;5033014;28;19960;-54
2021/12/29 05:40:07;;;;;;;;;;;10.10;88.80;;;;;;5032818;28;20269;-58
2021/12/29 05:42:35;;;;;;;;;;;10.20;88.90;;;;;;5032780;28;19917;-56
2021/12/29 05:45:02;;;;;;;;;;;10.10;88.80;;;;;;5033118;28;20068;-60
2021/12/29 05:47:28;;;;;;;;;;;10.10;88.80;;;;;;5032673;28;19909;-57
2021/12/29 05:49:53;;;;;;;;;;;10.10;88.80;;;;;;5031861;28;19916;-56
2021/12/29 05:52:19;;;;;;;;;;;10.10;88.80;;;;;;5032810;28;19948;-54
2021/12/29 05:54:44;;;;;;;;;;;10.20;88.80;;;;;;5032779;28;19909;-54
2021/12/29 05:57:10;;;;;;;;;;;10.10;88.80;;;;;;5033149;28;19979;-55
2021/12/29 05:59:35;;;;;;;;;;;10.10;89.30;;;;;;5032755;28;20385;-55
2021/12/29 06:02:01;;;;;;;;;;;10.00;89.40;;;;;;5036363;28;20373;-55
2021/12/29 06:04:27;;;;;;;;;;;10.00;89.50;;;;;;5036328;28;19909;-56
2021/12/29 06:06:52;;;;;;;;;;;10.00;89.50;;;;;;5036325;28;19913;-54
2021/12/29 06:09:18;;;;;;;;;;;10.00;89.60;;;;;;5036581;28;20412;-56
2021/12/29 06:11:43;;;;;;;;;;;10.10;89.40;;;;;;5036079;28;19991;-54
2021/12/29 06:14:10;;;;;;;;;;;10.10;89.20;;;;;;5034933;28;19988;-56
2021/12/29 06:16:36;;;;;;;;;;;10.10;89.10;;;;;;5036208;28;20275;-54
2021/12/29 06:19:01;;;;;;;;;;;10.00;89.20;;;;;;5035779;28;19921;-54
2021/12/29 06:21:27;;;;;;;;;;;10.10;89.30;;;;;;5036140;28;19918;-56
2021/12/29 06:23:52;;;;;;;;;;;10.10;89.30;;;;;;5035749;28;19921;-56
2021/12/29 06:26:18;;;;;;;;;;;10.10;89.00;;;;;;5035960;28;19916;-56
2021/12/29 06:28:44;;;;;;;;;;;10.10;88.80;;;;;;5036128;28;19909;-56
2021/12/29 06:31:09;;;;;;;;;;;10.10;89.20;;;;;;5035672;28;19962;-56
2021/12/29 06:33:35;;;;;;;;;;;10.00;89.30;;;;;;5035895;28;19917;-56
2021/12/29 06:36:00;;;;;;;;;;;10.00;89.50;;;;;;5035897;28;19917;-59
2021/12/29 06:38:26;;;;;;;;;;;10.00;89.60;;;;;;5035916;28;19913;-56
2021/12/29 06:40:52;;;;;;;;;;;10.00;89.80;;;;;;5035565;28;19917;-56
2021/12/29 06:43:18;;;;;;;;;;;10.00;89.60;;;;;;5035625;28;20357;-56
2021/12/29 06:45:43;;;;;;;;;;;9.90;89.70;;;;;;5035978;28;19920;-56
2021/12/29 06:48:09;;;;;;;;;;;9.90;89.60;;;;;;5035739;28;19909;-54
2021/12/29 06:50:35;;;;;;;;;;;10.00;89.40;;;;;;5035461;28;20268;-56
2021/12/29 06:53:00;;;;;;;;;;;10.00;88.80;;;;;;5034344;28;19913;-56
2021/12/29 06:55:26;;;;;;;;;;;10.10;88.10;;;;;;5035268;28;19931;-56
2021/12/29 06:57:52;;;;;;;;;;;10.20;87.30;;;;;;5035472;28;20071;-56
2021/12/29 07:00:18;;;;;;;;;;;10.10;87.40;;;;;;5035461;28;20330;-56
2021/12/29 07:02:44;;;;;;;;;;;9.90;88.30;;;;;;5035203;28;19917;-56
2021/12/29 07:05:09;;;;;;;;;;;9.70;89.60;;;;;;5035260;28;20368;-55
2021/12/29 07:07:35;;;;;;;;;;;9.70;89.70;;;;;;5035200;28;19987;-56
2021/12/29 07:10:01;;;;;;;;;;;9.80;89.30;;;;;;5035144;28;20356;-56
2021/12/29 07:12:26;;;;;;;;;;;9.80;88.60;;;;;;5034409;28;19932;-55
2021/12/29 07:14:52;;;;;;;;;;;10.00;89.20;;;;;;5035093;28;19970;-56
2021/12/29 07:17:17;;;;;;;;;;;10.20;87.80;;;;;;5035168;28;19909;-55
2021/12/29 07:19:43;;;;;;;;;;;10.30;87.20;;;;;;5034404;28;19928;-56
2021/12/29 07:22:09;;;;;;;;;;;10.30;86.70;;;;;;5034781;28;19920;-56
2021/12/29 07:24:34;;;;;;;;;;;10.30;86.40;;;;;;5034827;28;19978;-63
2021/12/29 07:27:00;;;;;;;;;;;10.40;86.20;;;;;;5034402;28;19913;-56
2021/12/29 07:29:26;;;;;;;;;;;10.50;85.40;;;;;;5034995;28;19909;-55
2021/12/29 07:31:53;;;;;;;;;;;10.70;85.30;;;;;;5034790;28;20365;-54
2021/12/29 07:34:21;;;;;;;;;;;10.90;84.00;;;;;;5034605;28;20336;-55
2021/12/29 07:36:47;;;;;;;;;;;10.90;83.50;;;;;;5034693;28;19909;-55
2021/12/29 07:39:14;;;;;;;;;;;11.00;83.20;;;;;;5034488;28;20369;-57
2021/12/29 07:41:40;;;;;;;;;;;11.00;82.80;;;;;;5034278;28;19909;-56
2021/12/29 07:44:07;;;;;;;;;;;11.00;82.90;;;;;;5034439;28;19920;-68
2021/12/29 07:46:34;;;;;;;;;;;11.10;82.60;;;;;;5016449;28;19964;-69
2021/12/29 07:49:00;;;;;;;;;;;11.00;82.40;;;;;;5034548;28;20070;-68
2021/12/29 07:51:26;;;;;;;;;;;11.10;83.00;;;;;;5033888;28;19909;-61
2021/12/29 07:53:51;;;;;;;;;;;11.00;82.90;;;;;;5034034;28;19978;-63
2021/12/29 07:56:17;;;;;;;;;;;10.60;85.20;;;;;;5034199;28;20424;-58
2021/12/29 07:58:43;;;;;;;;;;;10.60;85.80;;;;;;5033991;28;20443;-59
2021/12/29 08:01:09;;;;;;;;;;;10.70;85.50;;;;;;5032713;28;20003;-59
2021/12/29 08:03:35;;;;;;;;;;;10.70;85.30;;;;;;5033798;28;19921;-59
2021/12/29 08:06:00;;;;;;;;;;;10.70;85.30;;;;;;5034039;28;19920;-58
2021/12/29 08:08:26;;;;;;;;;;;10.80;85.40;;;;;;5033988;28;20365;-58
2021/12/29 08:10:52;;;;;;;;;;;10.80;85.60;;;;;;5033744;28;19909;-57
2021/12/29 08:13:17;;;;;;;;;;;10.70;86.00;;;;;;5034079;28;20008;-58
2021/12/29 08:15:44;;;;;;;;;;;10.50;86.50;;;;;;5033901;28;19915;-57
2021/12/29 08:18:10;;;;;;;;;;;10.60;86.50;;;;;;5033939;28;19909;-58
2021/12/29 08:20:36;;;;;;;;;;;10.40;87.10;;;;;;5033621;28;20318;-57
2021/12/29 08:23:03;;;;;;;;;;;10.50;87.20;;;;;;5033253;28;20335;-57
2021/12/29 08:25:29;;;;;;;;;;;10.50;87.10;;;;;;5033715;28;19935;-58
2021/12/29 08:27:54;;;;;;;;;;;10.50;87.30;;;;;;5033579;28;19909;-55
2021/12/29 08:30:20;;;;;;;;;;;10.50;87.20;;;;;;5033414;28;20380;-56
2021/12/29 08:32:46;;;;;;;;;;;10.60;87.10;;;;;;5033701;28;19909;-61
2021/12/29 08:35:11;;;;;;;;;;;10.70;86.40;;;;;;5033782;28;19909;-58
2021/12/29 08:37:37;;;;;;;;;;;10.70;86.00;;;;;;5033358;28;19912;-63
2021/12/29 08:40:04;;;;;;;;;;;10.60;86.60;;;;;;5033505;28;19913;-60
2021/12/29 08:42:30;;;;;;;;;;;10.60;87.00;;;;;;5033071;28;20016;-59
2021/12/29 08:44:56;;;;;;;;;;;10.50;87.10;;;;;;5033435;28;20012;-54
2021/12/29 08:47:21;;;;;;;;;;;10.50;87.30;;;;;;5033304;28;19913;-57
2021/12/29 08:49:47;;;;;;;;;;;10.60;86.90;;;;;;5033387;28;19909;-58
2021/12/29 08:52:12;;;;;;;;;;;10.70;86.60;;;;;;5033181;28;19913;-64
2021/12/29 08:54:38;;;;;;;;;;;10.70;86.50;;;;;;5033107;28;19915;-57
2021/12/29 08:57:05;;;;;;;;;;;10.70;85.80;;;;;;5033139;28;20016;-59
2021/12/29 08:59:31;;;;;;;;;;;10.60;85.30;;;;;;5033232;28;19909;-58
2021/12/29 09:01:57;;;;;;;;;;;10.50;85.20;;;;;;5033158;28;19963;-56
2021/12/29 09:04:22;;;;;;;;;;;10.50;85.10;;;;;;5033144;28;19967;-58
2021/12/29 09:06:48;;;;;;;;;;;10.60;85.10;;;;;;5032943;28;20327;-56
2021/12/29 09:09:14;;;;;;;;;;;10.50;84.20;;;;;;5033279;28;20032;-58
2021/12/29 09:11:40;;;;;;;;;;;10.60;85.10;;;;;;5032994;28;19916;-58
2021/12/29 09:14:06;;;;;;;;;;;10.70;85.40;;;;;;5032970;28;20296;-57
2021/12/29 09:16:32;;;;;;;;;;;10.80;85.30;;;;;;5033192;28;19909;-60
2021/12/29 09:18:57;;;;;;;;;;;10.70;84.60;;;;;;5032512;28;20353;-57
2021/12/29 09:21:26;;;;;;;;;;;10.80;84.90;;;;;;5032962;28;19913;-56
2021/12/29 09:23:51;;;;;;;;;;;10.90;84.70;;;;;;5033056;28;20002;-56
2021/12/29 09:26:17;;;;;;;;;;;10.80;84.80;;;;;;5032941;28;20373;-54
2021/12/29 09:28:43;;;;;;;;;;;10.90;84.70;;;;;;5032868;28;19920;-56
2021/12/29 09:31:09;;;;;;;;;;;11.00;85.20;;;;;;5032755;28;19910;-54
2021/12/29 09:33:35;;;;;;;;;;;11.00;85.30;;;;;;5032713;28;19909;-56
2021/12/29 09:36:02;;;;;;;;;;;11.10;85.10;;;;;;5035173;28;19913;-56
2021/12/29 09:38:34;;;;;;;;;;;11.20;85.00;;;;;;5036756;28;20000;-59
2021/12/29 09:41:01;;;;;;;;;;;11.20;84.40;;;;;;5036241;28;19909;-57
2021/12/29 09:43:26;;;;;;;;;;;11.20;84.10;;;;;;5035607;28;19924;-57
2021/12/29 09:45:52;;;;;;;;;;;11.30;83.90;;;;;;5036485;28;19917;-64
2021/12/29 09:48:18;;;;;;;;;;;11.30;82.50;;;;;;5036419;28;19917;-66
2021/12/29 09:50:44;;;;;;;;;;;11.30;82.00;;;;;;5036560;28;19909;-62
2021/12/29 09:53:11;;;;;;;;;;;11.30;81.50;;;;;;5036699;28;19924;-65
2021/12/29 09:55:37;;;;;;;;;;;11.20;81.60;;;;;;5036435;28;19917;-64
2021/12/29 09:58:04;;;;;;;;;;;11.10;81.00;;;;;;5018750;28;19913;-58
2021/12/29 10:00:31;;;;;;;;;;;11.10;81.10;;;;;;5036141;28;19909;-59
2021/12/29 10:02:58;;;;;;;;;;;11.20;80.50;;;;;;5036081;28;19964;-58
2021/12/29 10:05:27;;;;;;;;;;;11.10;79.50;;;;;;5036413;28;19932;-65
2021/12/29 10:07:57;;;;;;;;;;;11.10;80.30;;;;;;5036031;28;19920;-54
2021/12/29 10:10:23;;;;;;;;;;;11.20;81.70;;;;;;5036302;28;19913;-55
2021/12/29 10:12:49;;;;;;;;;;;11.20;82.50;;;;;;5036138;28;19917;-55
2021/12/29 10:15:15;;;;;;;;;;;11.30;82.70;;;;;;5036260;28;20285;-61
2021/12/29 10:17:41;;;;;;;;;;;11.30;82.50;;;;;;5036075;28;19916;-57
2021/12/29 10:20:11;;;;;;;;;;;11.30;82.10;;;;;;5035788;28;19921;-58
2021/12/29 10:22:37;;;;;;;;;;;11.30;81.80;;;;;;5036182;28;20369;-58
2021/12/29 10:25:04;;;;;;;;;;;11.50;81.70;;;;;;5035837;28;19913;-58
2021/12/29 10:27:30;;;;;;;;;;;11.50;81.30;;;;;;5018097;28;19916;-60
2021/12/29 10:29:56;;;;;;;;;;;11.50;79.60;;;;;;5035733;28;19916;-55
2021/12/29 10:32:22;;;;;;;;;;;11.60;79.40;;;;;;5035754;28;20339;-55
2021/12/29 10:34:54;;;;;;;;;;;11.70;80.40;;;;;;5035795;28;19956;-56
2021/12/29 10:37:23;;;;;;;;;;;11.70;80.00;;;;;;5035487;28;19909;-59
2021/12/29 10:39:50;;;;;;;;;;;11.70;79.50;;;;;;5035812;28;19931;-58
2021/12/29 10:42:17;;;;;;;;;;;11.70;80.30;;;;;;5035669;28;19919;-61
2021/12/29 10:44:43;;;;;;;;;;;11.70;80.90;;;;;;5035533;28;20353;-58
2021/12/29 10:47:13;;;;;;;;;;;11.70;80.80;;;;;;5034357;28;19909;-59
2021/12/29 10:49:51;;;;;;;;;;;11.60;79.60;;;;;;5035336;28;19955;-58
2021/12/29 10:52:27;;;;;;;;;;;11.70;80.00;;;;;;5035494;28;19963;-57
2021/12/29 10:54:52;;;;;;;;;;;11.70;80.60;;;;;;5035363;28;19937;-59
2021/12/29 10:57:18;;;;;;;;;;;11.80;81.40;;;;;;5035593;28;19909;-58
2021/12/29 10:59:43;;;;;;;;;;;11.80;81.60;;;;;;5035306;28;19992;-58
2021/12/29 11:02:10;;;;;;;;;;;11.80;81.40;;;;;;5035307;28;19913;-57
2021/12/29 11:04:36;;;;;;;;;;;11.80;81.70;;;;;;5035223;28;20415;-58
2021/12/29 11:07:03;;;;;;;;;;;11.60;81.50;;;;;;5035204;28;19909;-58
2021/12/29 11:09:32;;;;;;;;;;;11.40;82.10;;;;;;5035143;28;19975;-59
2021/12/29 11:11:58;;;;;;;;;;;11.20;82.90;;;;;;5034763;28;19956;-59
2021/12/29 11:14:28;;;;;;;;;;;11.30;83.50;;;;;;5035073;28;19936;-57
2021/12/29 11:16:59;;;;;;;;;;;11.30;82.90;;;;;;5035033;28;19936;-58
2021/12/29 11:19:25;;;;;;;;;;;11.40;83.30;;;;;;5034961;28;19921;-66
2021/12/29 11:21:51;;;;;;;;;;;11.30;82.70;;;;;;5034756;28;19909;-56
2021/12/29 11:24:20;;;;;;;;;;;11.10;83.10;;;;;;5034692;28;19917;-57
2021/12/29 11:26:46;;;;;;;;;;;10.90;84.20;;;;;;5035040;28;19909;-56
2021/12/29 11:29:15;;;;;;;;;;;11.00;84.40;;;;;;5034668;28;19909;-57
2021/12/29 11:31:45;;;;;;;;;;;10.90;83.60;;;;;;5034929;28;19936;-59
2021/12/29 11:34:12;;;;;;;;;;;10.70;84.30;;;;;;5034600;28;20004;-58
2021/12/29 11:36:37;;;;;;;;;;;10.90;84.80;;;;;;5034523;28;19916;-56
2021/12/29 11:39:03;;;;;;;;;;;11.00;84.30;;;;;;5034531;28;19913;-57
2021/12/29 11:41:29;;;;;;;;;;;11.10;83.30;;;;;;5034522;28;19909;-60
2021/12/29 11:43:54;;;;;;;;;;;11.20;82.60;;;;;;5034623;28;19917;-57
2021/12/29 11:46:24;;;;;;;;;;;11.20;82.30;;;;;;5034506;28;19909;-61
2021/12/29 11:48:53;;;;;;;;;;;11.10;81.90;;;;;;5034436;28;19916;-58
2021/12/29 11:51:41;;;;;;;;;;;10.80;82.10;;;;;;5034113;28;20354;-57
2021/12/29 11:54:11;;;;;;;;;;;11.00;81.90;;;;;;5032646;28;19917;-57
2021/12/29 11:56:41;;;;;;;;;;;11.10;82.00;;;;;;5033341;28;19909;-59
2021/12/29 11:59:07;;;;;;;;;;;11.00;81.30;;;;;;5033088;28;19910;-56
2021/12/29 12:01:32;;;;;;;;;;;11.10;82.00;;;;;;5033237;28;19913;-57
2021/12/29 12:03:59;;;;;;;;;;;11.30;81.80;;;;;;5033283;28;19924;-58
2021/12/29 12:06:30;;;;;;;;;;;11.20;80.00;;;;;;5033314;28;20276;-61
2021/12/29 12:09:05;;;;;;;;;;;11.40;80.10;;;;;;5033430;28;19949;-61
2021/12/29 12:11:31;;;;;;;;;;;11.20;79.90;;;;;;5033070;28;20280;-61
2021/12/29 12:13:56;;;;;;;;;;;11.30;80.00;;;;;;5033140;28;19917;-58
2021/12/29 12:16:24;;;;;;;;;;;11.40;80.10;;;;;;5033155;28;20289;-61
2021/12/29 12:18:57;;;;;;;;;;;11.40;80.20;;;;;;5033371;28;19914;-59
2021/12/29 12:21:41;;;;;;;;;;;11.40;80.90;;;;;;5033221;28;20377;-63
2021/12/29 12:24:10;;;;;;;;;;;11.50;79.90;;;;;;5032878;28;19917;-60
2021/12/29 12:26:46;;;;;;;;;;;11.30;79.40;;;;;;5032948;28;19963;-62
2021/12/29 12:29:14;;;;;;;;;;;11.20;80.50;;;;;;5032981;28;19967;-60
2021/12/29 12:31:39;;;;;;;;;;;11.30;80.20;;;;;;5032869;28;20004;-61
2021/12/29 12:34:14;;;;;;;;;;;11.40;80.30;;;;;;5032949;28;19991;-63
2021/12/29 12:36:40;;;;;;;;;;;11.50;79.80;;;;;;5032836;28;19909;-61
2021/12/29 12:39:10;;;;;;;;;;;11.60;79.80;;;;;;5032848;28;20316;-60
2021/12/29 12:41:37;;;;;;;;;;;11.70;79.60;;;;;;5032715;28;20000;-62
2021/12/29 12:44:04;;;;;;;;;;;11.80;79.40;;;;;;5032813;28;20011;-59
2021/12/29 12:46:39;;;;;;;;;;;11.80;79.50;;;;;;5032489;28;19975;-62
2021/12/29 12:49:11;;;;;;;;;;;11.80;79.20;;;;;;5032750;28;19935;-58
2021/12/29 12:51:37;;;;;;;;;;;11.80;78.60;;;;;;5032069;28;19932;-58
2021/12/29 12:54:16;;;;;;;;;;;11.80;78.50;;;;;;5032794;28;20345;-62
2021/12/29 12:56:44;;;;;;;;;;;11.80;78.60;;;;;;5032337;28;19913;-59
2021/12/29 12:59:10;;;;;;;;;;;11.80;78.70;;;;;;5032762;28;19949;-59
2021/12/29 13:01:42;;;;;;;;;;;11.80;78.50;;;;;;5032055;28;19971;-57
2021/12/29 13:04:08;;;;;;;;;;;11.70;78.60;;;;;;5032348;28;19964;-60
2021/12/29 13:06:35;;;;;;;;;;;11.70;78.70;;;;;;5032429;28;19910;-61
2021/12/29 13:09:02;;;;;;;;;;;11.70;78.70;;;;;;5032030;28;20008;-59
2021/12/29 13:11:31;;;;;;;;;;;11.70;79.00;;;;;;5028992;28;20288;-58
2021/12/29 13:13:57;;;;;;;;;;;11.60;79.40;;;;;;5012529;28;20366;-61
2021/12/29 13:16:25;;;;;;;;;;;11.60;79.60;;;;;;5012747;28;20000;-58
2021/12/29 13:18:51;;;;;;;;;;;11.70;78.60;;;;;;5012447;28;20334;-59
2021/12/29 13:21:21;;;;;;;;;;;11.70;78.40;;;;;;5012363;28;20052;-59
2021/12/29 13:23:47;;;;;;;;;;;11.70;78.90;;;;;;5012390;28;19925;-59
2021/12/29 13:26:15;;;;;;;;;;;11.60;79.20;;;;;;5012507;28;20358;-62
2021/12/29 13:28:40;;;;;;;;;;;11.60;80.00;;;;;;5012282;28;19944;-57
2021/12/29 13:31:06;;;;;;;;;;;11.40;81.00;;;;;;5012067;28;20015;-58
2021/12/29 13:33:32;;;;;;;;;;;11.40;80.70;;;;;;5012203;28;20007;-58
2021/12/29 13:35:59;;;;;;;;;;;11.40;81.30;;;;;;5014744;28;19917;-56
2021/12/29 13:38:26;;;;;;;;;;;11.30;81.50;;;;;;5021715;28;20008;-59
2021/12/29 13:40:54;;;;;;;;;;;11.30;82.00;;;;;;5011053;28;20281;-59
2021/12/29 13:43:27;;;;;;;;;;;11.30;81.60;;;;;;5011897;28;20289;-58
2021/12/29 13:45:55;;;;;;;;;;;11.20;82.20;;;;;;5012718;28;19959;-58
2021/12/29 13:48:27;;;;;;;;;;;11.20;82.50;;;;;;5010830;28;20015;-56
2021/12/29 13:51:07;;;;;;;;;;;11.20;82.30;;;;;;5010652;28;20012;-61
2021/12/29 13:53:34;;;;;;;;;;;11.20;82.20;;;;;;5012630;28;19968;-58
2021/12/29 13:56:10;;;;;;;;;;;11.10;82.30;;;;;;5014658;28;19917;-59
2021/12/29 13:58:36;;;;;;;;;;;11.10;83.30;;;;;;5017595;28;19972;-57
2021/12/29 14:01:03;;;;;;;;;;;11.10;82.40;;;;;;5015756;28;19910;-56
2021/12/29 14:03:30;;;;;;;;;;;11.10;82.70;;;;;;5012691;28;19926;-60
2021/12/29 14:05:59;;;;;;;;;;;11.10;82.60;;;;;;5010870;28;19948;-60
2021/12/29 14:08:25;;;;;;;;;;;11.00;82.60;;;;;;5011152;28;20366;-56
2021/12/29 14:10:51;;;;;;;;;;;11.10;82.80;;;;;;5012418;28;19910;-56
2021/12/29 14:13:18;;;;;;;;;;;11.10;83.10;;;;;;5007352;28;19909;-57
2021/12/29 14:15:45;;;;;;;;;;;10.90;83.40;;;;;;5029214;28;19917;-57
2021/12/29 14:18:22;;;;;;;;;;;10.90;83.90;;;;;;5029743;28;19924;-57
2021/12/29 14:20:49;;;;;;;;;;;11.00;83.20;;;;;;5030499;28;19929;-57